sensor_id;sensor_type;location;lat;lon;timestamp;P1;durP1;ratioP1;P2;durP2;ratioP2
10509;SDS011;5303;53.266;10.410;2023-02-01T00:01:36;23.00;;;4.70;;
10509;SDS011;5303;53.266;10.410;2023-02-01T00:04:02;20.03;;;4.67;;
10509;SDS011;5303;53.266;10.410;2023-02-01T00:06:27;21.20;;;4.83;;
10509;SDS011;5303;53.266;10.410;2023-02-01T00:08:53;24.37;;;5.00;;
10509;SDS011;5303;53.266;10.410;2023-02-01T00:11:19;17.73;;;3.83;;
10509;SDS011;5303;53.266;10.410;2023-02-01T00:13:45;17.33;;;4.80;;
10509;SDS011;5303;53.266;10.410;2023-02-01T00:16:12;16.33;;;4.33;;
10509;SDS011;5303;53.266;10.410;2023-02-01T00:18:39;19.37;;;4.13;;
10509;SDS011;5303;53.266;10.410;2023-02-01T00:21:04;21.43;;;5.10;;
10509;SDS011;5303;53.266;10.410;2023-02-01T00:23:32;20.50;;;4.57;;
10509;SDS011;5303;53.266;10.410;2023-02-01T00:26:05;20.10;;;4.97;;
10509;SDS011;5303;53.266;10.410;2023-02-01T00:28:32;19.30;;;4.63;;
10509;SDS011;5303;53.266;10.410;2023-02-01T00:30:58;22.23;;;4.23;;
10509;SDS011;5303;53.266;10.410;2023-02-01T00:33:25;14.70;;;4.37;;
10509;SDS011;5303;53.266;10.410;2023-02-01T00:35:50;21.47;;;4.83;;
10509;SDS011;5303;53.266;10.410;2023-02-01T00:38:16;19.87;;;4.20;;
10509;SDS011;5303;53.266;10.410;2023-02-01T00:40:41;19.73;;;4.93;;
10509;SDS011;5303;53.266;10.410;2023-02-01T00:43:06;19.30;;;5.03;;
10509;SDS011;5303;53.266;10.410;2023-02-01T00:45:31;22.10;;;4.47;;
10509;SDS011;5303;53.266;10.410;2023-02-01T00:47:57;18.20;;;4.77;;
10509;SDS011;5303;53.266;10.410;2023-02-01T00:50:22;20.57;;;4.83;;
10509;SDS011;5303;53.266;10.410;2023-02-01T00:52:47;20.07;;;4.93;;
10509;SDS011;5303;53.266;10.410;2023-02-01T00:55:12;17.93;;;4.87;;
10509;SDS011;5303;53.266;10.410;2023-02-01T00:57:38;16.57;;;4.33;;
10509;SDS011;5303;53.266;10.410;2023-02-01T01:00:03;18.87;;;5.73;;
10509;SDS011;5303;53.266;10.410;2023-02-01T01:02:29;17.63;;;4.20;;
10509;SDS011;5303;53.266;10.410;2023-02-01T01:04:54;22.80;;;5.13;;
10509;SDS011;5303;53.266;10.410;2023-02-01T01:07:19;23.27;;;4.73;;
10509;SDS011;5303;53.266;10.410;2023-02-01T01:09:45;22.03;;;5.37;;
10509;SDS011;5303;53.266;10.410;2023-02-01T01:12:10;24.50;;;5.30;;
10509;SDS011;5303;53.266;10.410;2023-02-01T01:14:35;20.70;;;4.97;;
10509;SDS011;5303;53.266;10.410;2023-02-01T01:17:00;16.47;;;4.23;;
10509;SDS011;5303;53.266;10.410;2023-02-01T01:19:26;20.40;;;4.90;;
10509;SDS011;5303;53.266;10.410;2023-02-01T01:21:51;24.20;;;5.13;;
10509;SDS011;5303;53.266;10.410;2023-02-01T01:24:16;23.27;;;5.63;;
10509;SDS011;5303;53.266;10.410;2023-02-01T01:26:41;16.70;;;4.80;;
10509;SDS011;5303;53.266;10.410;2023-02-01T01:29:08;16.53;;;4.27;;
10509;SDS011;5303;53.266;10.410;2023-02-01T01:31:34;22.93;;;4.83;;
10509;SDS011;5303;53.266;10.410;2023-02-01T01:33:59;21.13;;;4.60;;
10509;SDS011;5303;53.266;10.410;2023-02-01T01:36:25;23.40;;;4.67;;
10509;SDS011;5303;53.266;10.410;2023-02-01T01:38:52;17.50;;;4.90;;
10509;SDS011;5303;53.266;10.410;2023-02-01T01:41:20;23.27;;;5.70;;
10509;SDS011;5303;53.266;10.410;2023-02-01T01:44:01;23.57;;;5.50;;
10509;SDS011;5303;53.266;10.410;2023-02-01T01:46:29;21.67;;;4.80;;
10509;SDS011;5303;53.266;10.410;2023-02-01T01:49:00;20.40;;;5.20;;
10509;SDS011;5303;53.266;10.410;2023-02-01T01:51:30;23.33;;;5.07;;
10509;SDS011;5303;53.266;10.410;2023-02-01T01:54:32;21.63;;;5.43;;
10509;SDS011;5303;53.266;10.410;2023-02-01T01:56:55;15.07;;;4.70;;
10509;SDS011;5303;53.266;10.410;2023-02-01T01:59:24;18.13;;;4.93;;
10509;SDS011;5303;53.266;10.410;2023-02-01T02:01:50;20.03;;;4.70;;
10509;SDS011;5303;53.266;10.410;2023-02-01T02:04:16;17.80;;;4.50;;
10509;SDS011;5303;53.266;10.410;2023-02-01T02:06:47;24.10;;;5.03;;
10509;SDS011;5303;53.266;10.410;2023-02-01T02:09:17;23.40;;;5.13;;
10509;SDS011;5303;53.266;10.410;2023-02-01T02:11:43;21.90;;;4.70;;
10509;SDS011;5303;53.266;10.410;2023-02-01T02:14:09;20.57;;;6.27;;
10509;SDS011;5303;53.266;10.410;2023-02-01T02:16:40;25.80;;;5.60;;
10509;SDS011;5303;53.266;10.410;2023-02-01T02:22:33;23.37;;;5.03;;
10509;SDS011;5303;53.266;10.410;2023-02-01T02:28:13;25.70;;;6.30;;
10509;SDS011;5303;53.266;10.410;2023-02-01T02:36:46;27.17;;;5.87;;
10509;SDS011;5303;53.266;10.410;2023-02-01T02:39:34;24.40;;;5.93;;
10509;SDS011;5303;53.266;10.410;2023-02-01T02:44:47;22.67;;;4.60;;
10509;SDS011;5303;53.266;10.410;2023-02-01T02:47:39;17.70;;;5.33;;
10509;SDS011;5303;53.266;10.410;2023-02-01T02:50:20;18.30;;;5.23;;
10509;SDS011;5303;53.266;10.410;2023-02-01T02:53:21;28.03;;;5.90;;
10509;SDS011;5303;53.266;10.410;2023-02-01T02:56:10;19.47;;;4.93;;
10509;SDS011;5303;53.266;10.410;2023-02-01T02:58:56;29.47;;;5.93;;
10509;SDS011;5303;53.266;10.410;2023-02-01T03:01:42;27.53;;;6.13;;
10509;SDS011;5303;53.266;10.410;2023-02-01T03:04:26;26.13;;;5.53;;
10509;SDS011;5303;53.266;10.410;2023-02-01T03:06:52;25.90;;;5.80;;
10509;SDS011;5303;53.266;10.410;2023-02-01T03:09:31;17.57;;;4.70;;
10509;SDS011;5303;53.266;10.410;2023-02-01T03:12:03;18.10;;;4.60;;
10509;SDS011;5303;53.266;10.410;2023-02-01T03:14:56;24.63;;;5.00;;
10509;SDS011;5303;53.266;10.410;2023-02-01T03:17:27;21.83;;;5.57;;
10509;SDS011;5303;53.266;10.410;2023-02-01T03:19:56;25.80;;;6.43;;
10509;SDS011;5303;53.266;10.410;2023-02-01T03:22:26;24.03;;;5.93;;
10509;SDS011;5303;53.266;10.410;2023-02-01T03:25:05;25.10;;;5.40;;
10509;SDS011;5303;53.266;10.410;2023-02-01T03:27:41;26.13;;;5.53;;
10509;SDS011;5303;53.266;10.410;2023-02-01T03:30:18;28.50;;;5.07;;
10509;SDS011;5303;53.266;10.410;2023-02-01T03:32:46;27.77;;;7.20;;
10509;SDS011;5303;53.266;10.410;2023-02-01T03:35:26;16.33;;;4.73;;
10509;SDS011;5303;53.266;10.410;2023-02-01T03:37:56;24.67;;;5.50;;
10509;SDS011;5303;53.266;10.410;2023-02-01T03:40:32;19.47;;;4.17;;
10509;SDS011;5303;53.266;10.410;2023-02-01T03:43:01;14.97;;;4.13;;
10509;SDS011;5303;53.266;10.410;2023-02-01T03:45:34;16.47;;;4.60;;
10509;SDS011;5303;53.266;10.410;2023-02-01T03:48:06;17.43;;;4.30;;
10509;SDS011;5303;53.266;10.410;2023-02-01T03:50:33;19.40;;;4.70;;
10509;SDS011;5303;53.266;10.410;2023-02-01T03:53:03;18.50;;;4.17;;
10509;SDS011;5303;53.266;10.410;2023-02-01T03:55:33;14.70;;;4.13;;
10509;SDS011;5303;53.266;10.410;2023-02-01T03:58:13;12.63;;;4.40;;
10509;SDS011;5303;53.266;10.410;2023-02-01T04:00:40;11.67;;;2.47;;
10509;SDS011;5303;53.266;10.410;2023-02-01T04:03:08;11.37;;;3.00;;
10509;SDS011;5303;53.266;10.410;2023-02-01T04:05:34;9.43;;;2.30;;
10509;SDS011;5303;53.266;10.410;2023-02-01T04:08:00;7.00;;;1.80;;
10509;SDS011;5303;53.266;10.410;2023-02-01T04:10:25;7.63;;;1.77;;
10509;SDS011;5303;53.266;10.410;2023-02-01T04:12:51;5.73;;;2.30;;
10509;SDS011;5303;53.266;10.410;2023-02-01T04:15:16;4.87;;;1.60;;
10509;SDS011;5303;53.266;10.410;2023-02-01T04:17:41;6.23;;;1.63;;
10509;SDS011;5303;53.266;10.410;2023-02-01T04:20:07;7.57;;;1.87;;
10509;SDS011;5303;53.266;10.410;2023-02-01T04:22:33;6.13;;;1.70;;
10509;SDS011;5303;53.266;10.410;2023-02-01T04:24:59;4.20;;;1.40;;
10509;SDS011;5303;53.266;10.410;2023-02-01T04:27:24;6.47;;;1.83;;
10509;SDS011;5303;53.266;10.410;2023-02-01T04:29:50;4.03;;;1.77;;
10509;SDS011;5303;53.266;10.410;2023-02-01T04:32:15;4.80;;;1.73;;
10509;SDS011;5303;53.266;10.410;2023-02-01T04:34:41;4.40;;;1.57;;
10509;SDS011;5303;53.266;10.410;2023-02-01T04:37:07;7.80;;;1.70;;
10509;SDS011;5303;53.266;10.410;2023-02-01T04:39:32;3.67;;;1.73;;
10509;SDS011;5303;53.266;10.410;2023-02-01T04:41:58;5.23;;;1.63;;
10509;SDS011;5303;53.266;10.410;2023-02-01T04:44:23;3.53;;;1.70;;
10509;SDS011;5303;53.266;10.410;2023-02-01T04:46:49;5.43;;;1.60;;
10509;SDS011;5303;53.266;10.410;2023-02-01T04:49:14;5.70;;;1.60;;
10509;SDS011;5303;53.266;10.410;2023-02-01T04:51:40;8.73;;;2.07;;
10509;SDS011;5303;53.266;10.410;2023-02-01T04:54:06;7.93;;;2.57;;
10509;SDS011;5303;53.266;10.410;2023-02-01T04:56:31;7.47;;;2.07;;
10509;SDS011;5303;53.266;10.410;2023-02-01T04:58:57;4.90;;;1.87;;
10509;SDS011;5303;53.266;10.410;2023-02-01T05:01:22;7.70;;;1.80;;
10509;SDS011;5303;53.266;10.410;2023-02-01T05:03:49;7.57;;;1.90;;
10509;SDS011;5303;53.266;10.410;2023-02-01T05:06:14;6.50;;;1.80;;
10509;SDS011;5303;53.266;10.410;2023-02-01T05:08:39;4.73;;;1.70;;
10509;SDS011;5303;53.266;10.410;2023-02-01T05:11:05;3.23;;;1.47;;
10509;SDS011;5303;53.266;10.410;2023-02-01T05:13:30;4.33;;;1.30;;
10509;SDS011;5303;53.266;10.410;2023-02-01T05:16:14;2.93;;;1.67;;
10509;SDS011;5303;53.266;10.410;2023-02-01T05:18:40;2.90;;;1.30;;
10509;SDS011;5303;53.266;10.410;2023-02-01T05:21:05;4.83;;;1.80;;
10509;SDS011;5303;53.266;10.410;2023-02-01T05:23:30;3.57;;;1.60;;
10509;SDS011;5303;53.266;10.410;2023-02-01T05:25:59;5.87;;;1.90;;
10509;SDS011;5303;53.266;10.410;2023-02-01T05:28:25;3.37;;;1.80;;
10509;SDS011;5303;53.266;10.410;2023-02-01T05:30:50;5.17;;;1.70;;
10509;SDS011;5303;53.266;10.410;2023-02-01T05:33:16;6.10;;;1.70;;
10509;SDS011;5303;53.266;10.410;2023-02-01T05:35:41;8.67;;;1.77;;
10509;SDS011;5303;53.266;10.410;2023-02-01T05:38:06;5.83;;;1.90;;
10509;SDS011;5303;53.266;10.410;2023-02-01T05:40:31;5.33;;;1.63;;
10509;SDS011;5303;53.266;10.410;2023-02-01T05:42:57;4.97;;;1.77;;
10509;SDS011;5303;53.266;10.410;2023-02-01T05:45:22;3.10;;;1.63;;
10509;SDS011;5303;53.266;10.410;2023-02-01T05:47:47;4.63;;;1.70;;
10509;SDS011;5303;53.266;10.410;2023-02-01T05:50:13;2.50;;;1.23;;
10509;SDS011;5303;53.266;10.410;2023-02-01T05:52:38;3.07;;;1.10;;
10509;SDS011;5303;53.266;10.410;2023-02-01T05:55:03;2.73;;;1.33;;
10509;SDS011;5303;53.266;10.410;2023-02-01T05:57:29;3.10;;;1.23;;
10509;SDS011;5303;53.266;10.410;2023-02-01T05:59:55;1.60;;;1.20;;
10509;SDS011;5303;53.266;10.410;2023-02-01T06:02:20;2.50;;;1.10;;
10509;SDS011;5303;53.266;10.410;2023-02-01T06:04:46;2.93;;;1.10;;
10509;SDS011;5303;53.266;10.410;2023-02-01T06:07:11;6.80;;;1.53;;
10509;SDS011;5303;53.266;10.410;2023-02-01T06:09:37;1.47;;;1.10;;
10509;SDS011;5303;53.266;10.410;2023-02-01T06:12:03;4.60;;;1.30;;
10509;SDS011;5303;53.266;10.410;2023-02-01T06:14:29;4.70;;;1.60;;
10509;SDS011;5303;53.266;10.410;2023-02-01T06:16:54;6.40;;;2.03;;
10509;SDS011;5303;53.266;10.410;2023-02-01T06:19:20;4.47;;;2.00;;
10509;SDS011;5303;53.266;10.410;2023-02-01T06:21:46;3.27;;;1.40;;
10509;SDS011;5303;53.266;10.410;2023-02-01T06:24:11;4.40;;;1.80;;
10509;SDS011;5303;53.266;10.410;2023-02-01T06:26:37;2.80;;;1.23;;
10509;SDS011;5303;53.266;10.410;2023-02-01T06:29:03;3.47;;;1.17;;
10509;SDS011;5303;53.266;10.410;2023-02-01T06:31:29;2.97;;;1.30;;
10509;SDS011;5303;53.266;10.410;2023-02-01T06:33:54;1.90;;;1.07;;
10509;SDS011;5303;53.266;10.410;2023-02-01T06:36:19;1.93;;;1.00;;
10509;SDS011;5303;53.266;10.410;2023-02-01T06:38:46;2.30;;;0.97;;
10509;SDS011;5303;53.266;10.410;2023-02-01T06:41:12;2.10;;;1.13;;
10509;SDS011;5303;53.266;10.410;2023-02-01T06:43:38;1.97;;;1.00;;
10509;SDS011;5303;53.266;10.410;2023-02-01T06:46:04;1.63;;;0.93;;
10509;SDS011;5303;53.266;10.410;2023-02-01T06:48:32;1.67;;;1.40;;
10509;SDS011;5303;53.266;10.410;2023-02-01T06:50:57;3.83;;;1.43;;
10509;SDS011;5303;53.266;10.410;2023-02-01T06:53:23;2.43;;;1.10;;
10509;SDS011;5303;53.266;10.410;2023-02-01T06:55:52;4.30;;;1.80;;
10509;SDS011;5303;53.266;10.410;2023-02-01T06:58:18;3.67;;;1.63;;
10509;SDS011;5303;53.266;10.410;2023-02-01T07:00:43;3.23;;;1.50;;
10509;SDS011;5303;53.266;10.410;2023-02-01T07:03:09;4.07;;;1.50;;
10509;SDS011;5303;53.266;10.410;2023-02-01T07:05:34;4.90;;;1.80;;
10509;SDS011;5303;53.266;10.410;2023-02-01T07:07:59;3.10;;;1.57;;
10509;SDS011;5303;53.266;10.410;2023-02-01T07:10:24;5.03;;;1.67;;
10509;SDS011;5303;53.266;10.410;2023-02-01T07:12:50;6.20;;;1.57;;
10509;SDS011;5303;53.266;10.410;2023-02-01T07:15:15;4.33;;;1.60;;
10509;SDS011;5303;53.266;10.410;2023-02-01T07:17:40;4.13;;;1.80;;
10509;SDS011;5303;53.266;10.410;2023-02-01T07:20:06;5.10;;;1.70;;
10509;SDS011;5303;53.266;10.410;2023-02-01T07:22:32;3.80;;;1.50;;
10509;SDS011;5303;53.266;10.410;2023-02-01T07:24:57;5.77;;;1.63;;
10509;SDS011;5303;53.266;10.410;2023-02-01T07:27:22;4.33;;;1.60;;
10509;SDS011;5303;53.266;10.410;2023-02-01T07:29:50;5.73;;;1.90;;
10509;SDS011;5303;53.266;10.410;2023-02-01T07:32:16;6.53;;;1.70;;
10509;SDS011;5303;53.266;10.410;2023-02-01T07:34:42;8.07;;;2.53;;
10509;SDS011;5303;53.266;10.410;2023-02-01T07:37:08;5.87;;;2.20;;
10509;SDS011;5303;53.266;10.410;2023-02-01T07:39:33;6.43;;;2.00;;
10509;SDS011;5303;53.266;10.410;2023-02-01T07:41:59;6.80;;;2.23;;
10509;SDS011;5303;53.266;10.410;2023-02-01T07:44:24;9.83;;;2.30;;
10509;SDS011;5303;53.266;10.410;2023-02-01T07:46:49;9.43;;;2.70;;
10509;SDS011;5303;53.266;10.410;2023-02-01T07:49:15;10.10;;;2.53;;
10509;SDS011;5303;53.266;10.410;2023-02-01T07:51:42;8.50;;;2.63;;
10509;SDS011;5303;53.266;10.410;2023-02-01T07:54:07;9.60;;;2.73;;
10509;SDS011;5303;53.266;10.410;2023-02-01T07:56:32;14.63;;;3.30;;
10509;SDS011;5303;53.266;10.410;2023-02-01T07:58:58;17.20;;;2.87;;
10509;SDS011;5303;53.266;10.410;2023-02-01T08:01:26;12.27;;;3.20;;
10509;SDS011;5303;53.266;10.410;2023-02-01T08:03:56;12.87;;;3.03;;
10509;SDS011;5303;53.266;10.410;2023-02-01T08:06:26;12.50;;;4.60;;
10509;SDS011;5303;53.266;10.410;2023-02-01T08:08:53;13.40;;;4.00;;
10509;SDS011;5303;53.266;10.410;2023-02-01T08:11:19;18.60;;;4.17;;
10509;SDS011;5303;53.266;10.410;2023-02-01T08:13:46;17.33;;;4.37;;
10509;SDS011;5303;53.266;10.410;2023-02-01T08:16:12;13.63;;;3.27;;
10509;SDS011;5303;53.266;10.410;2023-02-01T08:18:38;15.27;;;3.40;;
10509;SDS011;5303;53.266;10.410;2023-02-01T08:23:35;16.33;;;3.73;;
10509;SDS011;5303;53.266;10.410;2023-02-01T08:26:06;12.47;;;3.73;;
10509;SDS011;5303;53.266;10.410;2023-02-01T08:28:38;13.93;;;3.43;;
10509;SDS011;5303;53.266;10.410;2023-02-01T08:31:05;18.17;;;4.70;;
10509;SDS011;5303;53.266;10.410;2023-02-01T08:33:31;16.00;;;3.23;;
10509;SDS011;5303;53.266;10.410;2023-02-01T08:35:57;16.40;;;3.50;;
10509;SDS011;5303;53.266;10.410;2023-02-01T08:38:22;15.97;;;4.00;;
10509;SDS011;5303;53.266;10.410;2023-02-01T08:40:47;13.47;;;4.07;;
10509;SDS011;5303;53.266;10.410;2023-02-01T08:43:13;16.47;;;4.30;;
10509;SDS011;5303;53.266;10.410;2023-02-01T08:45:39;18.27;;;3.97;;
10509;SDS011;5303;53.266;10.410;2023-02-01T08:48:05;15.27;;;3.90;;
10509;SDS011;5303;53.266;10.410;2023-02-01T08:50:30;16.33;;;4.30;;
10509;SDS011;5303;53.266;10.410;2023-02-01T08:52:55;15.07;;;4.00;;
10509;SDS011;5303;53.266;10.410;2023-02-01T08:55:21;18.10;;;4.20;;
10509;SDS011;5303;53.266;10.410;2023-02-01T08:57:46;16.30;;;4.23;;
10509;SDS011;5303;53.266;10.410;2023-02-01T09:00:12;17.13;;;3.83;;
10509;SDS011;5303;53.266;10.410;2023-02-01T09:02:40;17.47;;;4.40;;
10509;SDS011;5303;53.266;10.410;2023-02-01T09:05:06;17.77;;;5.33;;
10509;SDS011;5303;53.266;10.410;2023-02-01T09:07:32;16.63;;;4.30;;
10509;SDS011;5303;53.266;10.410;2023-02-01T09:09:58;19.10;;;4.70;;
10509;SDS011;5303;53.266;10.410;2023-02-01T09:12:26;16.27;;;3.40;;
10509;SDS011;5303;53.266;10.410;2023-02-01T09:14:55;13.73;;;3.60;;
10509;SDS011;5303;53.266;10.410;2023-02-01T09:17:21;11.70;;;3.30;;
10509;SDS011;5303;53.266;10.410;2023-02-01T09:19:47;17.90;;;3.87;;
10509;SDS011;5303;53.266;10.410;2023-02-01T09:22:14;17.37;;;4.27;;
10509;SDS011;5303;53.266;10.410;2023-02-01T09:24:39;13.90;;;3.80;;
10509;SDS011;5303;53.266;10.410;2023-02-01T09:27:04;16.30;;;3.87;;
10509;SDS011;5303;53.266;10.410;2023-02-01T09:29:31;13.03;;;3.77;;
10509;SDS011;5303;53.266;10.410;2023-02-01T09:31:57;14.87;;;4.50;;
10509;SDS011;5303;53.266;10.410;2023-02-01T09:34:22;19.07;;;4.53;;
10509;SDS011;5303;53.266;10.410;2023-02-01T09:36:47;13.17;;;4.37;;
10509;SDS011;5303;53.266;10.410;2023-02-01T09:39:13;16.37;;;4.17;;
10509;SDS011;5303;53.266;10.410;2023-02-01T09:44:13;17.43;;;5.00;;
10509;SDS011;5303;53.266;10.410;2023-02-01T09:46:53;17.67;;;4.70;;
10509;SDS011;5303;53.266;10.410;2023-02-01T09:49:35;16.73;;;4.00;;
10509;SDS011;5303;53.266;10.410;2023-02-01T09:52:07;19.77;;;4.10;;
10509;SDS011;5303;53.266;10.410;2023-02-01T09:55:09;14.00;;;4.33;;
10509;SDS011;5303;53.266;10.410;2023-02-01T10:00:16;20.90;;;4.40;;
10509;SDS011;5303;53.266;10.410;2023-02-01T10:02:47;16.63;;;4.67;;
10509;SDS011;5303;53.266;10.410;2023-02-01T10:05:15;13.10;;;4.50;;
10509;SDS011;5303;53.266;10.410;2023-02-01T10:10:15;16.30;;;4.17;;
10509;SDS011;5303;53.266;10.410;2023-02-01T10:13:05;17.47;;;4.67;;
10509;SDS011;5303;53.266;10.410;2023-02-01T10:15:44;16.57;;;4.03;;
10509;SDS011;5303;53.266;10.410;2023-02-01T10:20:56;23.53;;;4.90;;
10509;SDS011;5303;53.266;10.410;2023-02-01T10:26:25;19.33;;;4.77;;
10509;SDS011;5303;53.266;10.410;2023-02-01T10:29:01;15.30;;;3.73;;
10509;SDS011;5303;53.266;10.410;2023-02-01T10:31:29;19.53;;;4.67;;
10509;SDS011;5303;53.266;10.410;2023-02-01T10:33:57;18.43;;;4.97;;
10509;SDS011;5303;53.266;10.410;2023-02-01T10:36:49;18.50;;;4.23;;
10509;SDS011;5303;53.266;10.410;2023-02-01T10:39:18;17.33;;;3.90;;
10509;SDS011;5303;53.266;10.410;2023-02-01T10:41:44;15.90;;;3.93;;
10509;SDS011;5303;53.266;10.410;2023-02-01T10:44:16;17.83;;;4.60;;
10509;SDS011;5303;53.266;10.410;2023-02-01T10:46:47;18.77;;;4.97;;
10509;SDS011;5303;53.266;10.410;2023-02-01T10:52:28;19.07;;;4.63;;
10509;SDS011;5303;53.266;10.410;2023-02-01T10:57:55;19.23;;;4.40;;
10509;SDS011;5303;53.266;10.410;2023-02-01T11:01:03;16.33;;;4.27;;
10509;SDS011;5303;53.266;10.410;2023-02-01T11:11:32;10.83;;;3.50;;
10509;SDS011;5303;53.266;10.410;2023-02-01T11:14:25;21.43;;;4.13;;
10509;SDS011;5303;53.266;10.410;2023-02-01T11:19:20;14.70;;;3.90;;
10509;SDS011;5303;53.266;10.410;2023-02-01T11:21:55;19.33;;;3.67;;
10509;SDS011;5303;53.266;10.410;2023-02-01T11:24:28;17.53;;;4.53;;
10509;SDS011;5303;53.266;10.410;2023-02-01T11:26:58;15.43;;;3.57;;
10509;SDS011;5303;53.266;10.410;2023-02-01T11:29:35;19.33;;;4.10;;
10509;SDS011;5303;53.266;10.410;2023-02-01T11:32:03;12.23;;;4.63;;
10509;SDS011;5303;53.266;10.410;2023-02-01T11:34:35;22.33;;;5.43;;
10509;SDS011;5303;53.266;10.410;2023-02-01T11:37:03;22.60;;;4.47;;
10509;SDS011;5303;53.266;10.410;2023-02-01T11:39:30;15.80;;;4.17;;
10509;SDS011;5303;53.266;10.410;2023-02-01T11:42:15;17.97;;;3.93;;
10509;SDS011;5303;53.266;10.410;2023-02-01T11:44:42;14.57;;;4.27;;
10509;SDS011;5303;53.266;10.410;2023-02-01T11:47:28;16.45;;;4.80;;
10509;SDS011;5303;53.266;10.410;2023-02-01T11:50:05;19.47;;;4.60;;
10509;SDS011;5303;53.266;10.410;2023-02-01T12:00:28;15.03;;;4.13;;
10509;SDS011;5303;53.266;10.410;2023-02-01T12:08:58;15.50;;;3.73;;
10509;SDS011;5303;53.266;10.410;2023-02-01T12:26:00;13.50;;;2.93;;
10509;SDS011;5303;53.266;10.410;2023-02-01T12:28:49;10.47;;;3.07;;
10509;SDS011;5303;53.266;10.410;2023-02-01T12:39:47;5.23;;;1.40;;
10509;SDS011;5303;53.266;10.410;2023-02-01T12:42:21;3.83;;;1.50;;
10509;SDS011;5303;53.266;10.410;2023-02-01T12:47:56;4.47;;;1.77;;
10509;SDS011;5303;53.266;10.410;2023-02-01T12:50:27;1.20;;;1.10;;
10509;SDS011;5303;53.266;10.410;2023-02-01T12:53:08;1.70;;;1.30;;
10509;SDS011;5303;53.266;10.410;2023-02-01T12:55:47;1.00;;;0.87;;
10509;SDS011;5303;53.266;10.410;2023-02-01T13:01:20;0.70;;;0.70;;
10509;SDS011;5303;53.266;10.410;2023-02-01T13:03:56;0.77;;;0.67;;
10509;SDS011;5303;53.266;10.410;2023-02-01T13:06:51;0.70;;;0.70;;
10509;SDS011;5303;53.266;10.410;2023-02-01T13:11:51;1.03;;;0.80;;
10509;SDS011;5303;53.266;10.410;2023-02-01T13:16:59;0.50;;;0.50;;
10509;SDS011;5303;53.266;10.410;2023-02-01T13:19:28;1.53;;;0.80;;
10509;SDS011;5303;53.266;10.410;2023-02-01T13:22:00;1.00;;;0.87;;
10509;SDS011;5303;53.266;10.410;2023-02-01T13:27:13;1.70;;;0.80;;
10509;SDS011;5303;53.266;10.410;2023-02-01T13:30:23;1.33;;;0.73;;
10509;SDS011;5303;53.266;10.410;2023-02-01T13:32:47;0.50;;;0.50;;
10509;SDS011;5303;53.266;10.410;2023-02-01T13:35:32;0.80;;;0.77;;
10509;SDS011;5303;53.266;10.410;2023-02-01T13:40:48;0.70;;;0.70;;
10509;SDS011;5303;53.266;10.410;2023-02-01T13:43:21;1.90;;;0.80;;
10509;SDS011;5303;53.266;10.410;2023-02-01T13:45:51;1.40;;;0.80;;
10509;SDS011;5303;53.266;10.410;2023-02-01T13:48:26;1.03;;;0.67;;
10509;SDS011;5303;53.266;10.410;2023-02-01T13:50:56;1.40;;;0.80;;
10509;SDS011;5303;53.266;10.410;2023-02-01T13:53:30;1.23;;;0.80;;
10509;SDS011;5303;53.266;10.410;2023-02-01T13:56:02;0.77;;;0.63;;
10509;SDS011;5303;53.266;10.410;2023-02-01T13:58:33;1.97;;;1.30;;
10509;SDS011;5303;53.266;10.410;2023-02-01T14:03:46;0.77;;;0.70;;
10509;SDS011;5303;53.266;10.410;2023-02-01T14:09:12;1.70;;;1.30;;
10509;SDS011;5303;53.266;10.410;2023-02-01T14:11:42;1.10;;;0.77;;
10509;SDS011;5303;53.266;10.410;2023-02-01T14:19:30;3.43;;;1.00;;
10509;SDS011;5303;53.266;10.410;2023-02-01T14:21:58;4.00;;;1.30;;
10509;SDS011;5303;53.266;10.410;2023-02-01T14:24:29;0.67;;;0.60;;
10509;SDS011;5303;53.266;10.410;2023-02-01T14:26:58;3.57;;;1.10;;
10509;SDS011;5303;53.266;10.410;2023-02-01T14:29:33;2.23;;;0.93;;
10509;SDS011;5303;53.266;10.410;2023-02-01T14:34:36;2.70;;;1.00;;
10509;SDS011;5303;53.266;10.410;2023-02-01T14:37:08;2.30;;;1.10;;
10509;SDS011;5303;53.266;10.410;2023-02-01T14:39:49;2.47;;;1.17;;
10509;SDS011;5303;53.266;10.410;2023-02-01T14:47:44;4.20;;;1.40;;
10509;SDS011;5303;53.266;10.410;2023-02-01T14:55:29;4.17;;;1.60;;
10509;SDS011;5303;53.266;10.410;2023-02-01T14:58:16;5.13;;;2.00;;
10509;SDS011;5303;53.266;10.410;2023-02-01T15:00:57;4.13;;;1.50;;
10509;SDS011;5303;53.266;10.410;2023-02-01T15:03:34;4.70;;;1.27;;
10509;SDS011;5303;53.266;10.410;2023-02-01T15:09:14;4.47;;;2.00;;
10509;SDS011;5303;53.266;10.410;2023-02-01T15:11:56;2.60;;;1.40;;
10509;SDS011;5303;53.266;10.410;2023-02-01T15:14:22;4.40;;;1.30;;
10509;SDS011;5303;53.266;10.410;2023-02-01T15:16:48;4.87;;;1.60;;
10509;SDS011;5303;53.266;10.410;2023-02-01T15:19:18;5.73;;;1.53;;
10509;SDS011;5303;53.266;10.410;2023-02-01T15:21:47;1.87;;;1.17;;
10509;SDS011;5303;53.266;10.410;2023-02-01T15:24:18;4.07;;;1.30;;
10509;SDS011;5303;53.266;10.410;2023-02-01T15:26:45;5.30;;;1.47;;
10509;SDS011;5303;53.266;10.410;2023-02-01T15:29:11;4.15;;;1.63;;
10509;SDS011;5303;53.266;10.410;2023-02-01T15:31:42;4.00;;;1.30;;
10509;SDS011;5303;53.266;10.410;2023-02-01T15:34:12;2.23;;;1.20;;
10509;SDS011;5303;53.266;10.410;2023-02-01T15:36:38;4.17;;;1.63;;
10509;SDS011;5303;53.266;10.410;2023-02-01T15:41:43;5.03;;;1.67;;
10509;SDS011;5303;53.266;10.410;2023-02-01T15:44:19;3.17;;;2.10;;
10509;SDS011;5303;53.266;10.410;2023-02-01T15:46:45;4.97;;;1.80;;
10509;SDS011;5303;53.266;10.410;2023-02-01T15:49:17;5.50;;;1.73;;
10509;SDS011;5303;53.266;10.410;2023-02-01T15:51:48;5.10;;;1.70;;
10509;SDS011;5303;53.266;10.410;2023-02-01T15:54:16;4.60;;;1.70;;
10509;SDS011;5303;53.266;10.410;2023-02-01T15:56:46;8.20;;;2.47;;
10509;SDS011;5303;53.266;10.410;2023-02-01T15:59:20;8.60;;;2.40;;
10509;SDS011;5303;53.266;10.410;2023-02-01T16:01:48;10.13;;;3.23;;
10509;SDS011;5303;53.266;10.410;2023-02-01T16:04:17;11.47;;;3.20;;
10509;SDS011;5303;53.266;10.410;2023-02-01T16:06:53;12.13;;;3.33;;
10509;SDS011;5303;53.266;10.410;2023-02-01T16:09:25;9.20;;;3.47;;
10509;SDS011;5303;53.266;10.410;2023-02-01T16:12:01;6.77;;;3.30;;
10509;SDS011;5303;53.266;10.410;2023-02-01T16:14:28;13.23;;;5.60;;
10509;SDS011;5303;53.266;10.410;2023-02-01T16:16:55;8.67;;;2.43;;
10509;SDS011;5303;53.266;10.410;2023-02-01T16:19:22;11.87;;;2.80;;
10509;SDS011;5303;53.266;10.410;2023-02-01T16:21:52;12.47;;;3.00;;
10509;SDS011;5303;53.266;10.410;2023-02-01T16:24:18;8.63;;;3.10;;
10509;SDS011;5303;53.266;10.410;2023-02-01T16:26:43;17.43;;;9.23;;
10509;SDS011;5303;53.266;10.410;2023-02-01T16:29:08;40.70;;;16.27;;
10509;SDS011;5303;53.266;10.410;2023-02-01T16:31:35;29.07;;;12.43;;
10509;SDS011;5303;53.266;10.410;2023-02-01T16:34:03;20.73;;;11.00;;
10509;SDS011;5303;53.266;10.410;2023-02-01T16:36:30;12.53;;;2.90;;
10509;SDS011;5303;53.266;10.410;2023-02-01T16:38:55;9.73;;;3.93;;
10509;SDS011;5303;53.266;10.410;2023-02-01T16:41:21;10.80;;;3.00;;
10509;SDS011;5303;53.266;10.410;2023-02-01T16:43:51;10.77;;;3.17;;
10509;SDS011;5303;53.266;10.410;2023-02-01T16:46:19;7.27;;;3.30;;
10509;SDS011;5303;53.266;10.410;2023-02-01T16:48:53;11.63;;;4.33;;
10509;SDS011;5303;53.266;10.410;2023-02-01T16:51:20;9.83;;;3.10;;
10509;SDS011;5303;53.266;10.410;2023-02-01T16:53:47;10.90;;;3.53;;
10509;SDS011;5303;53.266;10.410;2023-02-01T16:56:14;13.77;;;4.47;;
10509;SDS011;5303;53.266;10.410;2023-02-01T16:58:43;12.17;;;4.77;;
10509;SDS011;5303;53.266;10.410;2023-02-01T17:01:10;13.77;;;4.47;;
10509;SDS011;5303;53.266;10.410;2023-02-01T17:03:37;10.80;;;4.47;;
10509;SDS011;5303;53.266;10.410;2023-02-01T17:06:03;20.10;;;5.23;;